Time;durP1;ratioP1;P1;durP2;ratioP2;P2;SDS_P1;SDS_P2;PMS_P1;PMS_P2;Temp;Humidity;BMP_temperature;BMP_pressure;BME280_temperature;BME280_humidity;BME280_pressure;Samples;Min_cycle;Max_cycle;Signal;HPM_P1;HPM_P2
2024/03/10 00:07:55;;;;;;;29.60;20.80;;;;;;;4.10;73.53;99058.63;447804;1240;139248;-58
2024/03/10 00:18:01;;;;;;;31.80;20.50;;;;;;;4.06;73.73;99053.23;447838;1239;139591;-58
2024/03/10 00:28:06;;;;;;;29.60;19.40;;;;;;;4.04;73.92;99050.20;447831;1240;139177;-60
2024/03/10 00:38:09;;;;;;;28.60;19.00;;;;;;;4.04;74.07;99046.92;447982;1240;138828;-60
2024/03/10 00:48:15;;;;;;;21.30;17.40;;;;;;;4.04;73.90;99040.34;447518;1240;139333;-59
2024/03/10 00:58:18;;;;;;;28.50;19.10;;;;;;;4.05;73.98;99030.23;448955;1239;138814;-71
2024/03/10 01:08:21;;;;;;;22.70;17.20;;;;;;;4.06;73.82;99035.91;449245;1240;139161;-70
2024/03/10 01:18:28;;;;;;;27.50;19.20;;;;;;;4.06;73.71;99028.96;447536;1238;139518;-70
2024/03/10 01:28:32;;;;;;;21.30;16.10;;;;;;;4.06;73.81;99029.68;447573;1239;139341;-59
2024/03/10 01:38:35;;;;;;;23.70;17.10;;;;;;;4.03;73.70;99021.70;447537;1240;138671;-72
2024/03/10 01:48:40;;;;;;;24.40;17.40;;;;;;;4.00;73.87;99022.54;447430;1240;138829;-72
2024/03/10 01:58:46;;;;;;;28.20;18.00;;;;;;;3.96;74.12;99016.98;448176;1240;138665;-71
2024/03/10 02:08:51;;;;;;;27.00;17.40;;;;;;;3.89;74.38;99009.50;447703;1240;137887;-59
2024/03/10 02:18:54;;;;;;;30.30;19.10;;;;;;;3.83;74.34;99000.93;447309;1240;139277;-58
2024/03/10 02:29:14;;;;;;;25.70;19.20;;;;;;;3.78;74.56;99001.51;447300;1240;139215;-59
2024/03/10 02:49:44;;;;;;;29.50;19.60;;;;;;;3.69;74.92;98993.25;447316;1239;139819;-71
2024/03/10 02:59:48;;;;;;;24.20;16.80;;;;;;;3.66;74.85;98991.84;447384;1241;139454;-72
2024/03/10 03:09:51;;;;;;;23.20;18.50;;;;;;;3.62;74.70;98984.39;447359;1241;139238;-59
2024/03/10 03:19:54;;;;;;;31.00;20.00;;;;;;;3.59;74.82;98973.61;447456;1240;139882;-59
2024/03/10 03:29:58;;;;;;;28.50;19.70;;;;;;;3.57;75.07;98962.63;447888;1240;138689;-71
2024/03/10 03:40:05;;;;;;;26.50;19.20;;;;;;;3.55;75.41;98958.41;448417;1239;138718;-71
2024/03/10 03:50:11;;;;;;;25.60;17.60;;;;;;;3.55;75.08;98962.06;448404;1239;138925;-59
2024/03/10 04:00:17;;;;;;;27.00;19.10;;;;;;;3.51;75.60;98948.90;447320;1240;139285;-58
2024/03/10 04:10:20;;;;;;;22.30;16.20;;;;;;;3.44;75.71;98937.06;447528;1240;139363;-59
2024/03/10 04:20:25;;;;;;;23.20;17.70;;;;;;;3.42;75.73;98943.77;447707;1240;139148;-60
2024/03/10 04:30:29;;;;;;;23.50;16.80;;;;;;;3.42;75.81;98953.45;447219;1240;139153;-60
2024/03/10 04:40:32;;;;;;;25.90;19.20;;;;;;;3.44;76.31;98941.58;447334;1238;139658;-59
2024/03/10 04:50:35;;;;;;;25.80;19.00;;;;;;;3.44;76.48;98946.78;447358;1240;139278;-59
2024/03/10 05:00:41;;;;;;;26.20;18.70;;;;;;;3.42;76.57;98940.44;447356;1238;139172;-59
2024/03/10 05:10:47;;;;;;;25.30;19.00;;;;;;;3.38;76.54;98950.66;447224;1240;140818;-58
2024/03/10 05:20:53;;;;;;;25.70;18.70;;;;;;;3.27;76.49;98940.79;447807;1238;138691;-59
2024/03/10 05:30:58;;;;;;;30.00;19.90;;;;;;;3.21;77.00;98942.74;447683;1240;139812;-59
2024/03/10 05:41:01;;;;;;;28.30;20.20;;;;;;;3.28;77.20;98958.23;448143;1238;139464;-72
2024/03/10 05:51:07;;;;;;;25.40;18.40;;;;;;;3.33;77.16;98964.02;447304;1238;139138;-73
2024/03/10 06:01:11;;;;;;;29.50;20.90;;;;;;;3.43;77.48;98954.06;447183;1238;139122;-72
2024/03/10 06:11:15;;;;;;;30.00;19.70;;;;;;;3.56;77.46;98970.13;447202;1240;139944;-73
2024/03/10 06:31:41;;;;;;;26.00;18.20;;;;;;;3.89;77.27;98965.16;447063;1240;139146;-60
2024/03/10 06:41:45;;;;;;;31.00;20.20;;;;;;;4.19;76.73;98962.55;444244;1238;5113264;-71
2024/03/10 06:51:48;;;;;;;27.90;19.70;;;;;;;4.41;76.21;98952.50;449310;1236;139433;-72
2024/03/10 07:01:56;;;;;;;25.80;17.90;;;;;;;4.64;75.91;98944.13;447227;1238;139028;-73
2024/03/10 07:12:00;;;;;;;27.50;18.10;;;;;;;4.93;75.47;98933.46;447350;1240;139231;-73
2024/03/10 07:22:04;;;;;;;24.70;18.50;;;;;;;5.29;74.91;98956.61;447319;1236;139476;-58
2024/03/10 07:32:08;;;;;;;25.10;19.30;;;;;;;6.19;74.68;98958.17;447081;1241;139115;-59
2024/03/10 07:42:15;;;;;;;24.20;20.00;;;;;;;7.91;72.73;98958.73;447176;1238;139185;-60
2024/03/10 07:52:19;;;;;;;19.00;17.00;;;;;;;10.32;70.47;98940.36;447439;1236;139515;-60
2024/03/10 08:02:22;;;;;;;39.00;36.10;;;;;;;15.78;63.84;98918.02;447443;1236;138304;-59
2024/03/10 08:12:29;;;;;;;17.60;15.80;;;;;;;19.24;55.12;98906.23;447559;1239;138851;-60
2024/03/10 08:22:32;;;;;;;35.70;33.10;;;;;;;19.98;48.65;98891.20;447052;1236;139076;-60
2024/03/10 08:32:36;;;;;;;37.70;35.20;;;;;;;21.80;45.80;98879.90;447893;1236;138773;-59
2024/03/10 08:42:42;;;;;;;16.50;15.00;;;;;;;23.42;43.32;98877.53;447156;1239;139350;-60
2024/03/10 08:52:46;;;;;;;14.80;13.50;;;;;;;24.63;40.10;98863.11;447284;1237;138717;-71
2024/03/10 09:02:50;;;;;;;14.40;12.90;;;;;;;21.53;37.96;98851.93;447336;1240;137407;-75
2024/03/10 09:12:53;;;;;;;15.70;14.10;;;;;;;16.95;39.79;98861.43;447169;1236;140094;-58
2024/03/10 09:23:01;;;;;;;14.60;13.10;;;;;;;13.66;42.73;98887.11;447285;1240;139581;-59
2024/03/10 09:33:09;;;;;;;15.00;13.40;;;;;;;11.93;45.69;98896.18;448108;1240;138735;-59
2024/03/10 09:43:11;;;;;;;;;;;;;;;11.38;47.90;98896.10;448253;1238;139179;-58
2024/03/10 09:53:17;;;;;;;13.80;11.40;;;;;;;11.07;49.19;98900.09;447801;1236;127207;-59
2024/03/10 10:03:22;;;;;;;13.70;11.90;;;;;;;10.55;50.36;98891.39;447861;1238;138802;-60
2024/03/10 10:13:27;;;;;;;17.20;12.70;;;;;;;10.40;51.45;98875.69;447939;1239;139327;-59
2024/03/10 10:23:31;;;;;;;14.50;12.10;;;;;;;10.22;52.26;98868.92;448957;1239;139632;-60
2024/03/10 10:33:36;;;;;;;16.90;12.70;;;;;;;10.40;52.93;98861.34;447301;1240;138880;-62
2024/03/10 10:43:40;;;;;;;15.30;12.20;;;;;;;10.49;53.09;98832.65;447065;1241;138975;-61
2024/03/10 10:53:46;;;;;;;17.70;13.60;;;;;;;10.62;53.44;98820.33;447774;1240;138782;-62
2024/03/10 11:03:54;;;;;;;14.50;11.70;;;;;;;10.78;53.77;98804.55;447832;1239;137417;-61
2024/03/10 11:13:57;;;;;;;14.50;11.70;;;;;;;11.06;53.57;98794.33;447755;1236;138702;-72
2024/03/10 11:24:01;;;;;;;13.90;11.20;;;;;;;11.33;53.51;98785.06;447512;1240;138838;-60
2024/03/10 11:34:07;;;;;;;12.50;9.10;;;;;;;11.35;52.86;98783.84;447136;1240;138721;-57
2024/03/10 11:44:12;;;;;;;12.70;10.80;;;;;;;11.14;52.76;98812.70;447490;1236;138587;-62
2024/03/10 11:54:18;;;;;;;12.20;10.20;;;;;;;11.03;53.15;98808.63;447018;1236;138922;-61
2024/03/10 12:04:22;;;;;;;13.50;11.70;;;;;;;10.95;53.41;98804.66;447288;1240;138699;-59
2024/03/10 12:14:25;;;;;;;11.50;10.30;;;;;;;10.75;53.76;98810.61;447656;1240;139596;-61
2024/03/10 12:24:30;;;;;;;14.00;11.20;;;;;;;10.69;54.37;98808.23;448053;1236;139683;-62
2024/03/10 12:34:33;;;;;;;13.50;10.00;;;;;;;10.90;54.73;98803.16;447247;1239;138905;-59
2024/03/10 12:44:37;;;;;;;13.20;10.70;;;;;;;10.90;54.82;98804.33;447660;1239;139136;-59
2024/03/10 12:54:42;;;;;;;13.90;11.20;;;;;;;10.72;55.27;98796.61;447286;1236;139580;-63
2024/03/10 13:04:48;;;;;;;13.90;11.00;;;;;;;10.65;55.86;98794.87;447422;1239;138611;-72
2024/03/10 13:14:53;;;;;;;12.20;10.20;;;;;;;10.64;56.29;98783.00;447979;1240;139427;-73
2024/03/10 13:24:58;;;;;;;14.30;10.70;;;;;;;10.61;56.67;98781.34;448340;1239;139374;-62
2024/03/10 13:35:08;;;;;;;11.90;10.60;;;;;;;10.61;57.20;98783.34;447375;1239;139076;-59
2024/03/10 13:45:12;;;;;;;11.00;8.90;;;;;;;10.59;57.72;98778.54;447682;1239;139853;-60
2024/03/10 13:55:30;;;;;;;11.80;9.50;;;;;;;10.56;58.17;98773.52;447228;1238;139041;-58
2024/03/10 14:05:36;;;;;;;10.90;8.50;;;;;;;10.56;58.18;98763.23;447676;1236;139008;-59
2024/03/10 14:15:42;;;;;;;11.20;8.30;;;;;;;10.51;58.48;98753.27;447476;1240;138351;-73
2024/03/10 14:25:46;;;;;;;;;;;;;;;10.34;59.86;98735.10;447524;1240;138370;-73
2024/03/10 14:35:49;;;;;;;11.90;9.10;;;;;;;10.12;61.65;98714.15;447488;1236;124981;-59
2024/03/10 14:45:55;;;;;;;16.50;10.50;;;;;;;10.03;63.01;98704.73;447216;1240;139175;-60
2024/03/10 14:56:03;;;;;;;12.50;9.30;;;;;;;10.14;62.78;98700.90;447457;1240;138813;-59
2024/03/10 15:06:09;;;;;;;12.70;8.00;;;;;;;10.24;62.24;98703.66;447622;1240;138599;-59
2024/03/10 15:16:12;;;;;;;9.10;6.40;;;;;;;10.28;61.77;98693.42;447745;1239;139470;-70
2024/03/10 15:26:15;;;;;;;12.00;7.90;;;;;;;10.30;60.81;98689.95;447658;1236;138984;-72
2024/03/10 15:36:19;;;;;;;10.20;8.00;;;;;;;10.29;60.75;98694.23;447766;1240;138545;-71
2024/03/10 15:46:26;;;;;;;7.20;6.40;;;;;;;10.28;60.68;98691.98;447395;1239;138563;-74
2024/03/10 15:56:29;;;;;;;10.20;7.20;;;;;;;10.26;60.75;98687.42;448068;1239;138529;-71
2024/03/10 16:06:33;;;;;;;9.00;6.50;;;;;;;10.19;61.00;98692.67;447500;1236;138937;-71
2024/03/10 16:16:37;;;;;;;9.80;8.00;;;;;;;10.08;61.32;98693.83;447545;1240;138488;-58
2024/03/10 16:26:42;;;;;;;8.90;6.80;;;;;;;9.98;61.67;98699.52;448277;1238;137969;-58
2024/03/10 16:36:45;;;;;;;10.60;7.50;;;;;;;9.87;61.96;98709.62;447961;1240;138197;-58
2024/03/10 16:46:53;;;;;;;12.70;8.70;;;;;;;9.76;62.43;98710.92;447464;1240;138606;-60
2024/03/10 16:56:57;;;;;;;;;;;;;;;9.68;62.76;98710.27;447826;1240;138951;-74
2024/03/10 17:07:06;;;;;;;10.40;7.50;;;;;;;9.61;63.05;98727.97;448216;1240;124967;-73
2024/03/10 17:17:09;;;;;;;12.70;9.00;;;;;;;9.57;63.46;98731.92;447880;1240;138360;-74
2024/03/10 17:27:15;;;;;;;10.20;8.30;;;;;;;9.53;63.76;98745.66;448344;1238;138419;-75
2024/03/10 17:37:19;;;;;;;10.30;7.80;;;;;;;9.46;64.28;98742.34;447771;1240;138943;-61
2024/03/10 17:47:22;;;;;;;13.00;8.20;;;;;;;9.35;64.74;98736.30;447609;1240;138563;-75
2024/03/10 17:57:26;;;;;;;11.50;8.10;;;;;;;9.17;65.98;98738.77;447584;1240;138140;-75
2024/03/10 18:07:31;;;;;;;10.80;8.70;;;;;;;8.98;67.02;98740.10;447521;1241;139257;-60
2024/03/10 18:17:37;;;;;;;12.20;8.30;;;;;;;8.80;68.33;98736.52;447515;1240;140093;-60
2024/03/10 18:27:43;;;;;;;13.40;8.60;;;;;;;8.64;69.39;98734.65;447853;1239;139719;-61
2024/03/10 18:37:46;;;;;;;11.30;8.40;;;;;;;8.57;70.15;98739.11;447189;1240;250724;-60
2024/03/10 18:47:49;;;;;;;10.80;9.00;;;;;;;8.58;70.92;98744.29;447765;1236;139102;-73
2024/03/10 18:57:56;;;;;;;9.60;7.50;;;;;;;8.54;71.53;98751.88;447790;1236;139087;-75
2024/03/10 19:08:00;;;;;;;10.30;7.50;;;;;;;8.54;71.95;98745.64;447680;1240;138658;-72
2024/03/10 19:18:06;;;;;;;9.70;6.80;;;;;;;8.59;72.10;98736.59;447575;1240;139315;-71
2024/03/10 19:28:11;;;;;;;10.60;7.80;;;;;;;8.67;72.12;98749.95;447568;1240;139630;-62
2024/03/10 19:38:16;;;;;;;8.50;6.60;;;;;;;8.72;71.80;98747.56;447255;1237;139868;-60
2024/03/10 19:48:23;;;;;;;8.60;6.30;;;;;;;8.72;71.48;98737.97;447276;1235;139161;-60
2024/03/10 19:58:30;;;;;;;9.60;7.60;;;;;;;8.69;71.25;98756.65;447537;1240;138818;-61
2024/03/10 20:08:34;;;;;;;10.00;8.30;;;;;;;8.64;71.07;98765.86;448140;1240;139219;-71
2024/03/10 20:18:40;;;;;;;13.00;7.50;;;;;;;8.59;71.21;98759.06;447464;1240;139475;-72
2024/03/10 20:28:43;;;;;;;10.40;7.20;;;;;;;8.58;71.38;98767.88;447747;1240;139628;-73
2024/03/10 20:38:47;;;;;;;10.20;7.60;;;;;;;8.56;71.34;98766.77;447548;1240;139443;-59
2024/03/10 20:48:50;;;;;;;9.90;6.80;;;;;;;8.52;71.63;98758.99;447806;1240;140384;-61
2024/03/10 20:58:56;;;;;;;11.80;7.00;;;;;;;8.48;71.77;98745.30;447721;1241;139129;-58
2024/03/10 21:09:01;;;;;;;9.40;7.50;;;;;;;8.44;71.83;98738.09;447521;1242;139324;-58
2024/03/10 21:19:07;;;;;;;10.90;7.70;;;;;;;8.36;72.06;98735.64;447448;1240;139726;-59
2024/03/10 21:29:11;;;;;;;8.80;6.70;;;;;;;8.26;72.24;98734.02;447597;1238;140185;-63
2024/03/10 21:39:19;;;;;;;9.20;6.90;;;;;;;8.11;72.93;98743.09;447898;1240;138906;-60
2024/03/10 21:49:24;;;;;;;8.50;6.80;;;;;;;7.92;73.64;98748.84;447700;1240;139100;-60
2024/03/10 21:59:30;;;;;;;10.40;7.40;;;;;;;7.74;74.69;98741.84;447781;1238;140269;-70
2024/03/10 22:09:34;;;;;;;8.40;7.50;;;;;;;7.59;75.08;98735.70;447707;1237;138716;-73
2024/03/10 22:19:38;;;;;;;10.00;7.30;;;;;;;7.44;75.96;98734.89;447445;1240;138704;-74
2024/03/10 22:29:45;;;;;;;9.20;6.80;;;;;;;7.35;76.59;98740.89;447330;1240;139543;-73
2024/03/10 22:39:49;;;;;;;11.20;7.30;;;;;;;7.27;77.07;98739.64;447439;1241;139616;-59
2024/03/10 22:49:54;;;;;;;11.50;8.00;;;;;;;7.20;77.84;98730.69;447096;1241;139959;-61
2024/03/10 22:59:57;;;;;;;10.00;8.60;;;;;;;7.14;78.05;98722.15;447136;1240;139628;-59
2024/03/10 23:10:04;;;;;;;8.70;7.10;;;;;;;7.09;78.40;98728.41;448172;1240;139147;-60
2024/03/10 23:20:12;;;;;;;11.40;8.80;;;;;;;7.06;78.61;98727.92;447218;1240;138929;-73
2024/03/10 23:30:17;;;;;;;9.90;7.40;;;;;;;7.01;78.67;98729.07;447238;1240;139055;-72
2024/03/10 23:40:22;;;;;;;9.20;8.10;;;;;;;6.98;79.00;98710.29;447971;1239;139877;-73
2024/03/10 23:50:26;;;;;;;10.70;7.40;;;;;;;6.94;78.85;98705.73;447544;1240;139646;-70
